createdAt,value
2019-05-20T00:00:02.877Z,13.8
2019-05-20T00:01:03.283Z,13.8
2019-05-20T00:02:02.835Z,13.8
2019-05-20T00:03:02.814Z,13.8
2019-05-20T00:04:02.661Z,13.7
2019-05-20T00:05:02.964Z,13.7
2019-05-20T00:06:02.886Z,13.8
2019-05-20T00:07:03.240Z,13.8
2019-05-20T00:08:02.838Z,13.8
2019-05-20T00:09:02.932Z,13.8
2019-05-20T00:10:03.404Z,13.9
2019-05-20T00:11:02.739Z,13.9
2019-05-20T00:12:02.773Z,14
2019-05-20T00:13:03.095Z,14
2019-05-20T00:14:02.441Z,14.1
2019-05-20T00:15:03.011Z,14.1
2019-05-20T00:16:02.746Z,14.1
2019-05-20T00:17:02.726Z,14.1
2019-05-20T00:18:03.274Z,14.1
2019-05-20T00:19:02.973Z,14.1
2019-05-20T00:20:03.441Z,14.1
2019-05-20T00:21:02.854Z,14.1
2019-05-20T00:22:03.216Z,14
2019-05-20T00:23:02.746Z,14.1
2019-05-20T00:24:03.057Z,14.1
2019-05-20T00:25:03.248Z,14
2019-05-20T00:26:03.454Z,13.9
2019-05-20T00:27:02.743Z,14
2019-05-20T00:28:03.256Z,13.9
2019-05-20T00:29:02.764Z,13.8
2019-05-20T00:30:03.263Z,13.8
2019-05-20T00:31:02.657Z,13.8
2019-05-20T00:32:02.953Z,13.7
2019-05-20T00:33:02.807Z,13.6
2019-05-20T00:34:02.619Z,13.6
2019-05-20T00:35:02.823Z,13.6
2019-05-20T00:36:03.107Z,13.6
2019-05-20T00:37:02.736Z,13.6
2019-05-20T00:38:02.394Z,13.7
2019-05-20T00:39:02.980Z,13.8
2019-05-20T00:40:02.562Z,13.8
2019-05-20T00:41:02.793Z,13.7
2019-05-20T00:42:02.645Z,13.8
2019-05-20T00:43:02.945Z,13.7
2019-05-20T00:44:03.179Z,13.7
2019-05-20T00:45:01.911Z,13.8
2019-05-20T00:46:02.730Z,13.9
2019-05-20T00:47:03.130Z,13.9
2019-05-20T00:48:02.498Z,13.9
2019-05-20T00:49:02.957Z,13.9
2019-05-20T00:50:03.107Z,13.9
2019-05-20T00:51:02.956Z,13.9
2019-05-20T00:52:02.624Z,13.9
2019-05-20T00:53:02.548Z,13.9
2019-05-20T00:54:03.444Z,13.9
2019-05-20T00:55:02.815Z,13.9
2019-05-20T00:56:03.282Z,13.9
2019-05-20T00:57:02.955Z,13.9
2019-05-20T00:58:02.750Z,13.9
2019-05-20T00:59:02.632Z,13.9
2019-05-20T01:00:03.090Z,13.9
2019-05-20T01:01:02.486Z,13.9
2019-05-20T01:02:03.206Z,13.9
2019-05-20T01:03:02.363Z,13.9
2019-05-20T01:04:02.866Z,13.9
2019-05-20T01:05:02.434Z,13.9
2019-05-20T01:06:02.642Z,13.9
2019-05-20T01:07:03.615Z,13.9
2019-05-20T01:08:03.108Z,13.9
2019-05-20T01:09:02.638Z,13.9
2019-05-20T01:10:02.806Z,13.9
2019-05-20T01:11:03.071Z,13.8
2019-05-20T01:12:02.602Z,13.8
2019-05-20T01:13:03.173Z,13.9
2019-05-20T01:14:02.719Z,13.8
2019-05-20T01:15:02.517Z,13.8
2019-05-20T01:16:02.674Z,13.9
2019-05-20T01:17:03.269Z,13.8
2019-05-20T01:18:03.558Z,13.8
2019-05-20T01:19:03.321Z,13.9
2019-05-20T01:20:02.651Z,13.9
2019-05-20T01:21:02.477Z,13.9
2019-05-20T01:22:02.804Z,13.8
2019-05-20T01:23:03.074Z,13.8
2019-05-20T01:24:02.555Z,13.8
2019-05-20T01:25:02.847Z,13.8
2019-05-20T01:26:03.042Z,13.8
2019-05-20T01:27:02.642Z,13.6
2019-05-20T01:28:02.981Z,13.6
2019-05-20T01:29:02.944Z,13.6
2019-05-20T01:30:02.754Z,13.6
2019-05-20T01:31:02.833Z,13.6
2019-05-20T01:32:02.640Z,13.6
2019-05-20T01:33:14.636Z,13.6
2019-05-20T01:34:02.783Z,13.6
2019-05-20T01:35:03.036Z,13.5
2019-05-20T01:36:02.563Z,13.6
2019-05-20T01:37:02.905Z,13.6
2019-05-20T01:38:02.514Z,13.7
2019-05-20T01:39:02.945Z,13.6
2019-05-20T01:40:02.626Z,13.6
2019-05-20T01:41:02.873Z,13.6
2019-05-20T01:42:02.611Z,13.6
2019-05-20T01:43:02.857Z,13.7
2019-05-20T01:44:02.489Z,13.7
2019-05-20T01:45:02.715Z,13.6
2019-05-20T01:46:02.321Z,13.6
2019-05-20T01:47:02.705Z,13.6
2019-05-20T01:48:03.175Z,13.6
2019-05-20T01:49:02.537Z,13.7
2019-05-20T01:50:02.947Z,13.7
2019-05-20T01:51:02.555Z,13.6
2019-05-20T01:52:02.789Z,13.7
2019-05-20T01:53:03.213Z,13.7
2019-05-20T01:54:02.894Z,13.6
2019-05-20T01:55:02.687Z,13.6
2019-05-20T01:56:02.973Z,13.7
2019-05-20T01:57:02.849Z,13.7
2019-05-20T01:58:03.142Z,13.6
2019-05-20T01:59:03.351Z,13.6
2019-05-20T02:00:03.327Z,13.6
2019-05-20T02:01:02.678Z,13.6
2019-05-20T02:02:02.851Z,13.6
2019-05-20T02:03:02.484Z,13.6
2019-05-20T02:04:03.405Z,13.6
2019-05-20T02:05:03.339Z,13.6
2019-05-20T02:06:02.543Z,13.6
2019-05-20T02:07:02.830Z,13.7
2019-05-20T02:08:03.296Z,13.6
2019-05-20T02:09:02.929Z,13.6
2019-05-20T02:10:02.899Z,13.6
2019-05-20T02:11:03.193Z,13.6
2019-05-20T02:12:02.963Z,13.6
2019-05-20T02:13:02.647Z,13.6
2019-05-20T02:14:03.322Z,13.6
2019-05-20T02:15:02.691Z,13.6
2019-05-20T02:16:02.982Z,13.6
2019-05-20T02:17:03.045Z,13.6
2019-05-20T02:18:03.366Z,13.6
2019-05-20T02:19:03.001Z,13.6
2019-05-20T02:20:02.931Z,13.6
2019-05-20T02:21:03.266Z,13.5
2019-05-20T02:22:02.520Z,13.5
2019-05-20T02:23:02.961Z,13.5
2019-05-20T02:24:02.590Z,13.4
2019-05-20T02:25:03.214Z,13.4
2019-05-20T02:26:02.777Z,13.4
2019-05-20T02:27:03.232Z,13.4
2019-05-20T02:28:02.725Z,13.4
2019-05-20T02:29:02.952Z,13.4
2019-05-20T02:30:03.012Z,13.3
2019-05-20T02:31:03.344Z,13.3
2019-05-20T02:32:02.867Z,13.2
2019-05-20T02:33:03.414Z,13.2
2019-05-20T02:34:02.780Z,13.3
2019-05-20T02:35:03.298Z,13.2
2019-05-20T02:36:02.576Z,13.2
2019-05-20T02:37:02.995Z,13.3
2019-05-20T02:38:02.800Z,13.2
2019-05-20T02:39:03.135Z,13.1
2019-05-20T02:40:03.271Z,13.2
2019-05-20T02:41:03.234Z,13.1
2019-05-20T02:42:03.308Z,13.1
2019-05-20T02:43:02.922Z,13.1
2019-05-20T02:44:03.150Z,13.1
2019-05-20T02:45:02.787Z,13.1
2019-05-20T02:46:02.410Z,13.1
2019-05-20T02:47:03.027Z,13.1
2019-05-20T02:48:03.278Z,13.1
2019-05-20T02:49:03.047Z,13.1
2019-05-20T02:50:02.509Z,13
2019-05-20T02:51:02.773Z,13
2019-05-20T02:52:03.180Z,12.9
2019-05-20T02:53:02.930Z,12.9
2019-05-20T02:54:03.097Z,12.9
2019-05-20T02:55:03.077Z,12.8
2019-05-20T02:56:03.205Z,12.8
2019-05-20T02:57:02.574Z,12.7
2019-05-20T02:58:02.863Z,12.8
2019-05-20T02:59:02.708Z,12.8
2019-05-20T03:00:03.028Z,12.8
2019-05-20T03:01:02.892Z,12.9
2019-05-20T03:02:02.502Z,12.9
2019-05-20T03:03:02.842Z,12.9
2019-05-20T03:04:13.253Z,13
2019-05-20T03:05:02.956Z,13
2019-05-20T03:06:03.095Z,13.1
2019-05-20T03:07:02.956Z,13
2019-05-20T03:08:02.391Z,13.1
2019-05-20T03:09:03.035Z,13
2019-05-20T03:10:02.760Z,13
2019-05-20T03:11:02.676Z,13
2019-05-20T03:12:03.321Z,13
2019-05-20T03:13:02.885Z,13.1
2019-05-20T03:14:02.809Z,13.1
2019-05-20T03:15:02.994Z,13.1
2019-05-20T03:16:03.416Z,13.1
2019-05-20T03:17:02.751Z,13.1
2019-05-20T03:18:02.401Z,13.1
2019-05-20T03:19:02.338Z,13.1
2019-05-20T03:20:03.062Z,13.1
2019-05-20T03:21:03.161Z,13
2019-05-20T03:22:03.474Z,12.9
2019-05-20T03:23:03.269Z,12.9
2019-05-20T03:24:03.273Z,12.9
2019-05-20T03:25:03.131Z,12.9
2019-05-20T03:26:02.832Z,12.9
2019-05-20T03:27:03.272Z,12.9
2019-05-20T03:28:02.704Z,12.9
2019-05-20T03:29:02.483Z,12.9
2019-05-20T03:30:03.008Z,12.9
2019-05-20T03:31:03.405Z,12.9
2019-05-20T03:32:02.652Z,12.9
2019-05-20T03:33:03.336Z,12.9
2019-05-20T03:34:02.454Z,13
2019-05-20T03:35:03.481Z,13
2019-05-20T03:36:02.916Z,13
2019-05-20T03:37:03.144Z,13
2019-05-20T03:38:02.486Z,13
2019-05-20T03:39:02.743Z,13
2019-05-20T03:40:03.209Z,13.1
2019-05-20T03:41:02.580Z,13.1
2019-05-20T03:42:03.140Z,13.1
2019-05-20T03:43:03.078Z,13.1
2019-05-20T03:44:03.189Z,13.1
2019-05-20T03:45:03.466Z,13.1
2019-05-20T03:46:02.677Z,13.1
2019-05-20T03:47:03.010Z,13.1
2019-05-20T03:48:03.346Z,13.1
2019-05-20T03:49:02.684Z,13.1
2019-05-20T03:50:03.353Z,13.1
2019-05-20T03:51:02.889Z,13.2
2019-05-20T03:52:03.383Z,13.1
2019-05-20T03:53:03.003Z,13.1
2019-05-20T03:54:02.370Z,13.2
2019-05-20T03:55:02.928Z,13.2
2019-05-20T03:56:03.247Z,13.2
2019-05-20T03:57:02.618Z,13.1
2019-05-20T03:58:03.369Z,13.1
2019-05-20T03:59:02.580Z,13.1
2019-05-20T04:00:03.113Z,13.1
2019-05-20T04:01:03.296Z,13.1
2019-05-20T04:02:03.276Z,13.1
2019-05-20T04:03:02.723Z,13.1
2019-05-20T04:04:02.972Z,13
2019-05-20T04:05:03.820Z,13
2019-05-20T04:06:03.367Z,13.1
2019-05-20T04:07:02.785Z,13
2019-05-20T04:08:02.712Z,13
2019-05-20T04:09:03.418Z,13
2019-05-20T04:10:02.987Z,13
2019-05-20T04:11:02.910Z,13.1
2019-05-20T04:12:02.817Z,13.1
2019-05-20T04:13:03.165Z,13.1
2019-05-20T04:14:02.612Z,13.1
2019-05-20T04:15:03.054Z,13.1
2019-05-20T04:16:02.274Z,13.1
2019-05-20T04:17:02.809Z,13.1
2019-05-20T04:18:03.096Z,13.1
2019-05-20T04:19:02.647Z,13.1
2019-05-20T04:20:03.260Z,13.1
2019-05-20T04:21:03.064Z,13.1
2019-05-20T04:22:02.828Z,13.1
2019-05-20T04:23:03.375Z,13
2019-05-20T04:24:02.817Z,12.9
2019-05-20T04:25:03.308Z,13
2019-05-20T04:26:02.728Z,13
2019-05-20T04:27:03.180Z,13.1
2019-05-20T04:28:03.256Z,13
2019-05-20T04:29:02.804Z,13.1
2019-05-20T04:30:02.459Z,13.1
2019-05-20T04:31:03.004Z,13.1
2019-05-20T04:32:01.959Z,13.1
2019-05-20T04:33:02.674Z,13.2
2019-05-20T04:34:03.130Z,13.1
2019-05-20T04:35:23.632Z,13.1
2019-05-20T04:36:02.871Z,13.1
2019-05-20T04:37:03.246Z,13.1
2019-05-20T04:38:02.832Z,13.1
2019-05-20T04:39:03.210Z,13.1
2019-05-20T04:40:02.500Z,13.2
2019-05-20T04:41:03.356Z,13.2
2019-05-20T04:42:07.328Z,13.3
2019-05-20T04:43:02.481Z,13.3
2019-05-20T04:44:03.022Z,13.3
2019-05-20T04:45:03.290Z,13.3
2019-05-20T04:46:02.780Z,13.3
2019-05-20T04:47:03.382Z,13.3
2019-05-20T04:48:02.836Z,13.3
2019-05-20T04:49:03.126Z,13.3
2019-05-20T04:50:02.545Z,13.3
2019-05-20T04:51:02.942Z,13.3
2019-05-20T04:52:02.463Z,13.4
2019-05-20T04:53:02.983Z,13.4
2019-05-20T04:54:03.097Z,13.4
2019-05-20T04:55:02.823Z,13.3
2019-05-20T04:56:03.009Z,13.4
2019-05-20T04:57:02.692Z,13.4
2019-05-20T04:58:03.200Z,13.4
2019-05-20T04:59:02.595Z,13.4
2019-05-20T05:00:03.111Z,13.4
2019-05-20T05:01:02.550Z,13.5
2019-05-20T05:02:02.941Z,13.5
2019-05-20T05:03:02.584Z,13.5
2019-05-20T05:04:02.848Z,13.4
2019-05-20T05:05:03.333Z,13.4
2019-05-20T05:06:02.680Z,13.4
2019-05-20T05:07:03.481Z,13.4
2019-05-20T05:08:02.672Z,13.4
2019-05-20T05:09:03.345Z,13.4
2019-05-20T05:10:02.277Z,13.4
2019-05-20T05:11:02.823Z,13.4
2019-05-20T05:12:02.416Z,13.4
2019-05-20T05:13:02.403Z,13.5
2019-05-20T05:14:02.301Z,13.6
2019-05-20T05:15:08.303Z,13.6
2019-05-20T05:16:03.286Z,13.6
2019-05-20T05:17:03.090Z,13.5
2019-05-20T05:18:03.323Z,13.5
2019-05-20T05:19:02.890Z,13.6
2019-05-20T05:20:02.652Z,13.5
2019-05-20T05:21:02.689Z,13.5
2019-05-20T05:22:02.683Z,13.6
2019-05-20T05:23:03.337Z,13.6
2019-05-20T05:24:02.740Z,13.6
2019-05-20T05:25:02.818Z,13.6
2019-05-20T05:26:03.368Z,13.6
2019-05-20T05:27:02.747Z,13.6
2019-05-20T05:28:02.341Z,13.6
2019-05-20T05:29:03.043Z,13.6
2019-05-20T05:30:03.121Z,13.6
2019-05-20T05:31:02.638Z,13.6
2019-05-20T05:32:03.258Z,13.6
2019-05-20T05:33:02.612Z,13.5
2019-05-20T05:34:03.177Z,13.6
2019-05-20T05:35:02.652Z,13.6
2019-05-20T05:36:02.751Z,13.6
2019-05-20T05:37:02.798Z,13.6
2019-05-20T05:38:03.640Z,13.7
2019-05-20T05:39:03.356Z,13.8
2019-05-20T05:40:02.793Z,13.8
2019-05-20T05:41:03.245Z,13.8
2019-05-20T05:42:02.564Z,13.9
2019-05-20T05:43:02.669Z,13.9
2019-05-20T05:44:02.845Z,13.9
2019-05-20T05:45:03.375Z,13.8
2019-05-20T05:46:02.808Z,13.8
2019-05-20T05:47:03.175Z,13.9
2019-05-20T05:48:02.801Z,13.9
2019-05-20T05:49:03.069Z,13.9
2019-05-20T05:50:02.618Z,13.9
2019-05-20T05:51:02.885Z,13.9
2019-05-20T05:52:03.234Z,13.9
2019-05-20T05:53:02.729Z,13.9
2019-05-20T05:54:02.973Z,14
2019-05-20T05:55:02.582Z,14.1
2019-05-20T05:56:03.444Z,14
2019-05-20T05:57:02.607Z,14
2019-05-20T05:58:03.154Z,14.1
2019-05-20T05:59:02.580Z,14.1
2019-05-20T06:00:03.334Z,14
2019-05-20T06:01:02.815Z,14
2019-05-20T06:02:03.056Z,14.2
2019-05-20T06:03:02.798Z,14.2
2019-05-20T06:04:03.317Z,14.1
2019-05-20T06:05:01.721Z,14.1
2019-05-20T06:06:13.724Z,14.1
2019-05-20T06:07:02.395Z,14.1
2019-05-20T06:08:03.142Z,14.1
2019-05-20T06:09:02.837Z,14.1
2019-05-20T06:10:02.496Z,14.1
2019-05-20T06:11:02.598Z,14.1
2019-05-20T06:12:03.321Z,14.1
2019-05-20T06:13:03.185Z,14.1
2019-05-20T06:14:02.605Z,14.2
2019-05-20T06:15:02.851Z,14.1
2019-05-20T06:16:02.460Z,14.1
2019-05-20T06:17:03.016Z,14.2
2019-05-20T06:18:02.603Z,14.2
2019-05-20T06:19:03.147Z,14.3
2019-05-20T06:20:02.774Z,14.3
2019-05-20T06:21:02.990Z,14.3
2019-05-20T06:22:02.788Z,14.4
2019-05-20T06:23:02.458Z,14.3
2019-05-20T06:24:03.016Z,14.4
2019-05-20T06:25:03.919Z,14.3
2019-05-20T06:26:03.158Z,14.4
2019-05-20T06:27:02.943Z,14.4
2019-05-20T06:28:03.355Z,14.4
2019-05-20T06:29:03.309Z,14.3
2019-05-20T06:30:02.665Z,14.3
2019-05-20T06:31:03.406Z,14.4
2019-05-20T06:32:02.514Z,14.3
2019-05-20T06:33:03.205Z,14.4
2019-05-20T06:34:02.556Z,14.4
2019-05-20T06:35:03.388Z,14.4
2019-05-20T06:36:02.893Z,14.4
2019-05-20T06:37:03.089Z,14.5
2019-05-20T06:38:02.714Z,14.5
2019-05-20T06:39:03.136Z,14.4
2019-05-20T06:40:03.149Z,14.4
2019-05-20T06:41:02.555Z,14.4
2019-05-20T06:42:03.212Z,14.4
2019-05-20T06:43:02.472Z,14.4
2019-05-20T06:44:03.009Z,14.4
2019-05-20T06:45:02.926Z,14.4
2019-05-20T06:46:02.966Z,14.6
2019-05-20T06:47:03.233Z,14.6
2019-05-20T06:48:02.873Z,14.5
2019-05-20T06:49:03.281Z,14.5
2019-05-20T06:50:03.073Z,14.6
2019-05-20T06:51:02.584Z,14.6
2019-05-20T06:52:02.868Z,14.7
2019-05-20T06:53:03.463Z,14.7
2019-05-20T06:54:02.773Z,14.6
2019-05-20T06:55:03.412Z,14.6
2019-05-20T06:56:02.528Z,14.5
2019-05-20T06:57:03.133Z,14.6
2019-05-20T06:58:02.792Z,14.6
2019-05-20T06:59:03.191Z,14.6
2019-05-20T07:00:03.023Z,14.6
2019-05-20T07:01:03.188Z,14.7
2019-05-20T07:02:03.130Z,14.7
2019-05-20T07:03:03.310Z,14.6
2019-05-20T07:04:03.081Z,14.7
2019-05-20T07:05:02.500Z,14.6
2019-05-20T07:06:02.805Z,14.6
2019-05-20T07:07:21.592Z,14.6
2019-05-20T07:08:02.678Z,14.6
2019-05-20T07:09:03.043Z,14.7
2019-05-20T07:10:02.960Z,14.7
2019-05-20T07:11:02.828Z,14.8
2019-05-20T07:12:02.445Z,14.8
2019-05-20T07:13:02.892Z,14.8
2019-05-20T07:14:03.381Z,14.8
2019-05-20T07:15:03.141Z,14.8
2019-05-20T07:16:03.191Z,14.8
2019-05-20T07:17:02.705Z,14.7
2019-05-20T07:18:03.194Z,14.7
2019-05-20T07:19:02.864Z,14.6
2019-05-20T07:20:03.007Z,14.6
2019-05-20T07:21:02.662Z,14.6
2019-05-20T07:22:02.949Z,14.7
2019-05-20T07:23:02.456Z,14.9
2019-05-20T07:24:02.678Z,14.9
2019-05-20T07:25:03.684Z,14.9
2019-05-20T07:26:02.524Z,14.9
2019-05-20T07:27:03.378Z,14.9
2019-05-20T07:28:02.902Z,14.9
2019-05-20T07:29:03.566Z,14.8
2019-05-20T07:30:03.202Z,14.8
2019-05-20T07:31:02.972Z,14.8
2019-05-20T07:32:02.687Z,14.8
2019-05-20T07:33:03.341Z,14.8
2019-05-20T07:34:03.106Z,14.9
2019-05-20T07:35:03.377Z,14.8
2019-05-20T07:36:02.676Z,14.9
2019-05-20T07:37:04.350Z,14.9
2019-05-20T07:38:03.325Z,14.9
2019-05-20T07:39:02.819Z,14.9
2019-05-20T07:40:03.277Z,14.9
2019-05-20T07:41:01.513Z,14.9
2019-05-20T07:42:03.428Z,14.9
2019-05-20T07:43:02.588Z,14.9
2019-05-20T07:44:03.661Z,15.1
2019-05-20T07:45:03.717Z,15.1
2019-05-20T07:46:03.139Z,15.1
2019-05-20T07:47:02.581Z,15.1
2019-05-20T07:48:03.376Z,15.1
2019-05-20T07:49:03.100Z,15.1
2019-05-20T07:50:03.177Z,15.1
2019-05-20T07:51:03.269Z,15
2019-05-20T07:52:03.222Z,15.1
2019-05-20T07:53:03.383Z,15.1
2019-05-20T07:54:02.968Z,15.1
2019-05-20T07:55:03.477Z,15.1
2019-05-20T07:56:03.141Z,15.2
2019-05-20T07:57:03.183Z,15.1
2019-05-20T07:58:03.197Z,15.1
2019-05-20T07:59:03.133Z,15.1
2019-05-20T08:00:03.074Z,15.1
2019-05-20T08:01:03.121Z,15.1
2019-05-20T08:02:03.333Z,15.1
2019-05-20T08:03:02.726Z,15.2
2019-05-20T08:04:03.099Z,15.2
2019-05-20T08:05:03.823Z,15.2
2019-05-20T08:06:02.607Z,15.3
2019-05-20T08:07:50.238Z,15.4
2019-05-20T08:09:02.628Z,15.3
2019-05-20T08:10:03.044Z,15.3
2019-05-20T08:11:02.713Z,15.3
2019-05-20T08:12:02.663Z,15.4
2019-05-20T08:13:03.077Z,15.4
2019-05-20T08:14:02.807Z,15.4
2019-05-20T08:15:03.329Z,15.4
2019-05-20T08:16:02.796Z,15.5
2019-05-20T08:17:03.000Z,15.5
2019-05-20T08:18:02.642Z,15.5
2019-05-20T08:19:03.292Z,15.5
2019-05-20T08:20:02.767Z,15.5
2019-05-20T08:21:02.879Z,15.6
2019-05-20T08:22:03.397Z,15.5
2019-05-20T08:23:02.672Z,15.6
2019-05-20T08:24:03.377Z,15.5
2019-05-20T08:25:02.693Z,15.4
2019-05-20T08:26:03.290Z,15.4
2019-05-20T08:27:02.642Z,15.6
2019-05-20T08:28:03.153Z,15.6
2019-05-20T08:29:02.636Z,15.6
2019-05-20T08:30:03.082Z,15.6
2019-05-20T08:31:02.657Z,15.5
2019-05-20T08:32:03.130Z,15.5
2019-05-20T08:33:03.330Z,15.5
2019-05-20T08:34:02.932Z,15.5
2019-05-20T08:35:02.548Z,15.5
2019-05-20T08:36:02.858Z,15.5
2019-05-20T08:37:03.845Z,15.4
2019-05-20T08:38:02.638Z,15.4
2019-05-20T08:39:03.165Z,15.4
2019-05-20T08:40:02.883Z,15.3
2019-05-20T08:41:03.306Z,15.3
2019-05-20T08:42:02.665Z,15.3
2019-05-20T08:43:02.920Z,15.3
2019-05-20T08:44:02.407Z,15.3
2019-05-20T08:45:04.157Z,15.3
2019-05-20T08:46:03.241Z,15.3
2019-05-20T08:47:03.051Z,15.3
2019-05-20T08:48:02.668Z,15.2
2019-05-20T08:49:02.982Z,15.3
2019-05-20T08:50:15.853Z,15.2
2019-05-20T08:51:02.750Z,15.3
2019-05-20T08:52:03.189Z,15.4
2019-05-20T08:53:02.665Z,15.4
2019-05-20T08:54:03.282Z,15.3
2019-05-20T08:55:02.823Z,15.3
2019-05-20T08:56:03.235Z,15.3
2019-05-20T08:57:03.507Z,15.4
2019-05-20T08:58:03.183Z,15.4
2019-05-20T08:59:03.442Z,15.4
2019-05-20T09:00:03.661Z,15.4
2019-05-20T09:01:04.228Z,15.5
2019-05-20T09:02:03.371Z,15.6
2019-05-20T09:03:02.791Z,15.6
2019-05-20T09:04:02.769Z,15.6
2019-05-20T09:05:02.754Z,15.6
2019-05-20T09:06:02.790Z,15.7
2019-05-20T09:07:02.617Z,15.6
2019-05-20T09:08:04.433Z,15.6
2019-05-20T09:09:02.480Z,15.6
2019-05-20T09:10:03.447Z,15.6
2019-05-20T09:11:02.962Z,15.6
2019-05-20T09:12:03.355Z,15.8
2019-05-20T09:13:02.594Z,15.7
2019-05-20T09:14:03.183Z,15.6
2019-05-20T09:15:02.431Z,15.6
2019-05-20T09:16:03.350Z,15.6
2019-05-20T09:17:03.469Z,15.6
2019-05-20T09:18:03.016Z,15.7
2019-05-20T09:19:02.870Z,15.8
2019-05-20T09:20:02.881Z,15.8
2019-05-20T09:21:03.234Z,15.8
2019-05-20T09:22:02.831Z,15.8
2019-05-20T09:23:03.189Z,15.9
2019-05-20T09:24:03.450Z,16
2019-05-20T09:25:03.987Z,16
2019-05-20T09:26:02.586Z,16
2019-05-20T09:27:02.772Z,15.8
2019-05-20T09:28:03.085Z,15.8
2019-05-20T09:29:02.758Z,15.7
2019-05-20T09:30:03.268Z,15.7
2019-05-20T09:31:02.848Z,15.7
2019-05-20T09:32:02.942Z,15.6
2019-05-20T09:33:02.950Z,15.6
2019-05-20T09:34:02.838Z,15.6
2019-05-20T09:35:03.262Z,15.7
2019-05-20T09:36:02.646Z,15.8
2019-05-20T09:37:03.276Z,15.8
2019-05-20T09:38:21.409Z,15.9
2019-05-20T09:39:03.448Z,15.9
2019-05-20T09:40:02.728Z,16
2019-05-20T09:41:03.033Z,16
2019-05-20T09:42:02.780Z,15.9
2019-05-20T09:43:03.535Z,15.8
2019-05-20T09:44:02.918Z,15.8
2019-05-20T09:45:03.617Z,15.8
2019-05-20T09:46:08.673Z,15.8
2019-05-20T09:47:03.205Z,15.9
2019-05-20T09:48:02.869Z,16.1
2019-05-20T09:49:03.434Z,16.1
2019-05-20T09:50:03.432Z,16
2019-05-20T09:51:03.567Z,15.9
2019-05-20T09:52:03.349Z,15.9
2019-05-20T09:53:07.875Z,16.1
2019-05-20T09:54:03.304Z,16.2
2019-05-20T09:55:02.872Z,16.3
2019-05-20T09:56:03.027Z,16.4
2019-05-20T09:57:02.498Z,16.4
2019-05-20T09:58:03.118Z,16.4
2019-05-20T09:59:03.485Z,16.5
2019-05-20T10:00:02.978Z,16.5
2019-05-20T10:01:02.566Z,16.4
2019-05-20T10:02:02.839Z,16.4
2019-05-20T10:03:03.878Z,16.4
2019-05-20T10:04:02.857Z,16.3
2019-05-20T10:05:03.397Z,16.3
2019-05-20T10:06:02.777Z,16.3
2019-05-20T10:07:02.924Z,16.2
2019-05-20T10:08:03.323Z,16.1
2019-05-20T10:09:02.819Z,16.2
2019-05-20T10:10:03.244Z,16.1
2019-05-20T10:11:02.662Z,16.1
2019-05-20T10:12:02.661Z,16.1
2019-05-20T10:13:02.500Z,16.1
2019-05-20T10:14:02.865Z,16.1
2019-05-20T10:15:02.644Z,16.1
2019-05-20T10:16:02.661Z,16.1
2019-05-20T10:17:03.333Z,16.1
2019-05-20T10:18:03.484Z,16.3
2019-05-20T10:19:02.749Z,16.3
2019-05-20T10:20:03.562Z,16.2
2019-05-20T10:21:03.200Z,16.2
2019-05-20T10:22:02.317Z,16.1
2019-05-20T10:23:03.346Z,16.1
2019-05-20T10:24:03.436Z,16.2
2019-05-20T10:25:02.856Z,16.3
2019-05-20T10:26:02.554Z,16.2
2019-05-20T10:27:02.685Z,16.3
2019-05-20T10:28:03.118Z,16.3
2019-05-20T10:29:02.554Z,16.3
2019-05-20T10:30:03.143Z,16.3
2019-05-20T10:31:02.560Z,16.3
2019-05-20T10:32:03.290Z,16.3
2019-05-20T10:33:03.153Z,16.3
2019-05-20T10:34:02.515Z,16.2
2019-05-20T10:35:03.119Z,16.1
2019-05-20T10:36:03.344Z,16.2
2019-05-20T10:37:02.896Z,16.3
2019-05-20T10:38:03.217Z,16.2
2019-05-20T10:39:02.606Z,16.2
2019-05-20T10:40:03.266Z,16.2
2019-05-20T10:41:03.455Z,16.3
2019-05-20T10:42:03.115Z,16.4
2019-05-20T10:43:02.964Z,16.4
2019-05-20T10:44:02.514Z,16.4
2019-05-20T10:45:03.828Z,16.4
2019-05-20T10:46:02.613Z,16.3
2019-05-20T10:47:02.925Z,16.3
2019-05-20T10:48:03.756Z,16.5
2019-05-20T10:49:02.982Z,16.6
2019-05-20T10:50:02.709Z,16.6
2019-05-20T10:51:02.526Z,16.5
2019-05-20T10:52:03.233Z,16.5
2019-05-20T10:53:02.503Z,16.3
2019-05-20T10:54:02.870Z,16.4
2019-05-20T10:55:03.645Z,16.4
2019-05-20T10:56:03.511Z,16.3
2019-05-20T10:57:03.184Z,16.3
2019-05-20T10:58:02.738Z,16.4
2019-05-20T10:59:03.251Z,16.4
2019-05-20T11:00:03.224Z,16.3
2019-05-20T11:01:04.085Z,16.4
2019-05-20T11:02:02.591Z,16.4
2019-05-20T11:03:03.097Z,16.4
2019-05-20T11:04:03.067Z,16.4
2019-05-20T11:05:02.621Z,16.4
2019-05-20T11:06:03.584Z,16.4
2019-05-20T11:07:02.984Z,16.5
2019-05-20T11:08:02.776Z,16.4
2019-05-20T11:09:14.790Z,16.4
2019-05-20T11:10:03.555Z,16.4
2019-05-20T11:11:02.979Z,16.4
2019-05-20T11:12:03.364Z,16.4
2019-05-20T11:13:03.378Z,16.4
2019-05-20T11:14:03.279Z,16.4
2019-05-20T11:15:03.396Z,16.5
2019-05-20T11:16:02.503Z,16.4
2019-05-20T11:17:03.100Z,16.4
2019-05-20T11:18:02.284Z,16.5
2019-05-20T11:19:03.124Z,16.4
2019-05-20T11:20:02.763Z,16.4
2019-05-20T11:21:02.622Z,16.4
2019-05-20T11:22:03.307Z,16.4
2019-05-20T11:23:02.781Z,16.3
2019-05-20T11:24:02.627Z,16.3
2019-05-20T11:25:02.818Z,16.3
2019-05-20T11:26:03.254Z,16.3
2019-05-20T11:27:02.442Z,16.2
2019-05-20T11:28:03.631Z,16.2
2019-05-20T11:29:02.458Z,16.2
2019-05-20T11:30:03.267Z,16.3
2019-05-20T11:31:02.696Z,16.4
2019-05-20T11:32:02.951Z,16.4
2019-05-20T11:33:03.288Z,16.4
2019-05-20T11:34:02.877Z,16.4
2019-05-20T11:35:03.134Z,16.4
2019-05-20T11:36:02.794Z,16.4
2019-05-20T11:37:03.393Z,16.5
2019-05-20T11:38:03.050Z,16.4
2019-05-20T11:39:07.565Z,16.3
2019-05-20T11:40:05.788Z,16.3
2019-05-20T11:41:03.188Z,16.2
2019-05-20T11:42:02.697Z,16.1
2019-05-20T11:43:02.969Z,16.2
2019-05-20T11:44:02.877Z,16.3
2019-05-20T11:45:03.319Z,16.4
2019-05-20T11:46:03.470Z,16.4
2019-05-20T11:47:02.838Z,16.4
2019-05-20T11:48:03.379Z,16.5
2019-05-20T11:49:03.070Z,16.6
2019-05-20T11:50:03.548Z,16.6
2019-05-20T11:51:02.842Z,16.5
2019-05-20T11:52:03.059Z,16.5
2019-05-20T11:53:02.622Z,16.4
2019-05-20T11:54:03.004Z,16.3
2019-05-20T11:55:03.242Z,16.4
2019-05-20T11:56:02.758Z,16.4
2019-05-20T11:57:02.487Z,16.4
2019-05-20T11:58:16.837Z,16.4
2019-05-20T11:59:02.975Z,16.4
2019-05-20T12:00:03.337Z,16.4
2019-05-20T12:01:02.591Z,16.3
2019-05-20T12:02:04.413Z,16.3
2019-05-20T12:03:02.746Z,16.3
2019-05-20T12:04:03.296Z,16.3
2019-05-20T12:05:02.733Z,16.4
2019-05-20T12:06:04.975Z,16.5
2019-05-20T12:07:03.106Z,16.5
2019-05-20T12:08:03.175Z,16.6
2019-05-20T12:09:03.375Z,16.7
2019-05-20T12:10:02.698Z,16.8
2019-05-20T12:11:02.918Z,16.8
2019-05-20T12:12:03.289Z,16.7
2019-05-20T12:13:03.034Z,16.7
2019-05-20T12:14:03.261Z,16.6
2019-05-20T12:15:06.554Z,16.6
2019-05-20T12:16:03.425Z,16.7
2019-05-20T12:17:02.780Z,16.8
2019-05-20T12:18:03.171Z,16.6
2019-05-20T12:19:02.929Z,16.6
2019-05-20T12:20:06.634Z,16.6
2019-05-20T12:21:02.552Z,16.6
2019-05-20T12:22:02.843Z,16.6
2019-05-20T12:23:03.539Z,16.7
2019-05-20T12:24:02.882Z,16.8
2019-05-20T12:25:03.528Z,16.8
2019-05-20T12:26:02.826Z,16.6
2019-05-20T12:27:03.088Z,16.6
2019-05-20T12:28:03.418Z,16.6
2019-05-20T12:29:02.701Z,16.6
2019-05-20T12:30:02.577Z,16.6
2019-05-20T12:31:03.173Z,16.5
2019-05-20T12:32:03.908Z,16.4
2019-05-20T12:33:19.996Z,16.4
2019-05-20T12:34:02.376Z,16.6
2019-05-20T12:35:02.842Z,16.4
2019-05-20T12:36:03.356Z,16.4
2019-05-20T12:37:02.807Z,16.4
2019-05-20T12:38:03.307Z,16.4
2019-05-20T12:39:03.313Z,16.3
2019-05-20T12:40:08.959Z,16.2
2019-05-20T12:41:03.387Z,16.1
2019-05-20T12:42:02.810Z,16
2019-05-20T12:43:02.826Z,15.9
2019-05-20T12:44:13.429Z,15.9
2019-05-20T12:45:03.381Z,15.8
2019-05-20T12:46:02.511Z,15.5
2019-05-20T12:47:02.765Z,15.2
2019-05-20T12:48:03.278Z,15
2019-05-20T12:49:02.904Z,14.6
2019-05-20T12:50:03.082Z,14.3
2019-05-20T12:51:03.174Z,14.3
2019-05-20T12:52:02.387Z,14.3
2019-05-20T12:53:02.753Z,14.4
2019-05-20T12:54:03.060Z,14.3
2019-05-20T12:55:10.470Z,14.1
2019-05-20T12:56:03.428Z,14.1
2019-05-20T12:57:02.653Z,14.1
2019-05-20T12:58:03.326Z,14.2
2019-05-20T12:59:02.620Z,14.3
2019-05-20T13:00:03.418Z,14.3
2019-05-20T13:01:02.809Z,14.4
2019-05-20T13:02:03.387Z,14.2
2019-05-20T13:03:02.846Z,14.3
2019-05-20T13:04:03.162Z,14.4
2019-05-20T13:05:03.316Z,14.4
2019-05-20T13:06:02.658Z,14.4
2019-05-20T13:07:03.185Z,14.3
2019-05-20T13:08:02.765Z,14.3
2019-05-20T13:09:03.005Z,14.3
2019-05-20T13:10:03.694Z,14.3
2019-05-20T13:11:02.784Z,14.2
2019-05-20T13:12:02.884Z,14.3
2019-05-20T13:13:03.336Z,14.3
2019-05-20T13:14:02.982Z,14.1
2019-05-20T13:15:02.502Z,14.2
2019-05-20T13:16:03.122Z,14.3
2019-05-20T13:17:03.280Z,14.3
2019-05-20T13:18:02.658Z,14.3
2019-05-20T13:19:03.225Z,14.1
2019-05-20T13:20:02.518Z,14.1
2019-05-20T13:21:04.061Z,14.2
2019-05-20T13:22:03.797Z,14.2